Torm Kansas — OYNA2 — position and weather

sailwx.info

Track history (hours):
 
Tides and Currents Weather Stations Pressure Air Temp Water Temp Dewpoint Dewpoint Depression Visibility Wind Speed Wind Dir Waves Ship Positions

Torm Kansas

Last reported at 2018-Apr-21 16:11 UTC. Time now 2018-Apr-21 17:21 UTC.
Position N 25°35' E 120°42'.

Length 183 m; draft 11.4 m.

Type: Tanker. MMSI: 220565000.

Date/timePositionNaut miles runAvg speedWind from/ knotsBaromVisibWave heightAir tempDewpointWater temp
2018-Apr-21 16:11N 25°35' E 120°42'413.6
2018-Apr-21 15:54N 25°37' E 120°45'613.7
2018-Apr-21 15:27N 25°42' E 120°49'713.4
2018-Apr-21 14:55N 25°47' E 120°55'35411.6
2018-Apr-20 08:24N 31°11' E 123°39'613.9
2018-Apr-20 08:00N 31°16' E 123°37'714.0
2018-Apr-20 07:30N 31°21' E 123°32'913.5
2018-Apr-20 06:50N 31°28' E 123°24'30712.6
2018-Apr-19 06:30N 35°59' E 120°31'713.6
2018-Apr-19 06:00N 36°01' E 120°23'611.0
2018-Apr-19 05:28N 36°02' E 120°16'3 0.5
2018-Apr-18 23:53N 36°04' E 120°13'0 0.0
2018-Apr-17 04:42N 36°04' E 120°13'0 1.0
2018-Apr-17 04:27N 36°04' E 120°13'4 7.8
2018-Apr-17 03:56N 36°02' E 120°17'810.0
2018-Apr-17 03:11N 35°60' E 120°26'1 5.7
2018-Apr-17 02:56N 35°58' E 120°26'0 0.1
2018-Apr-17 02:24N 35°58' E 120°26'0 0.0
2018-Apr-17 01:18N 35°58' E 120°26'0 0.0
2018-Apr-17 01:00N 35°58' E 120°26'0 0.2
2018-Apr-17 00:24N 35°58' E 120°26'0 0.2
2018-Apr-16 23:51N 35°58' E 120°26'0 0.0
2018-Apr-16 23:18N 35°58' E 120°26'0 0.0
2018-Apr-16 22:57N 35°58' E 120°26'0 0.0
2018-Apr-16 22:24N 35°58' E 120°26'0 0.0
2018-Apr-16 21:48N 35°58' E 120°26'0 0.0
2018-Apr-16 21:30N 35°58' E 120°26'0 0.0
2018-Apr-16 19:48N 35°58' E 120°26'0 0.0
2018-Apr-16 19:30N 35°58' E 120°26'0 0.0
2018-Apr-16 19:00N 35°58' E 120°26'0 0.1
2018-Apr-16 18:27N 35°58' E 120°26'0 0.0
2018-Apr-16 17:54N 35°58' E 120°26'0 0.1
2018-Apr-16 17:18N 35°58' E 120°26'0 0.1
2018-Apr-16 16:46N 35°58' E 120°26'0 0.2
2018-Apr-16 16:29N 35°58' E 120°26'0 0.0
2018-Apr-16 14:52N 35°58' E 120°26'0 0.1
2018-Apr-16 14:28N 35°58' E 120°26'0 0.1
2018-Apr-16 14:00N 35°58' E 120°26'0 0.1
2018-Apr-16 11:45N 35°58' E 120°26'0 0.0
2018-Apr-16 11:27N 35°58' E 120°26'0 0.0
2018-Apr-16 10:22N 35°58' E 120°26'0 0.0
2018-Apr-16 08:36N 35°58' E 120°26'0 0.0
2018-Apr-16 08:21N 35°58' E 120°26'0 0.0
2018-Apr-16 07:48N 35°58' E 120°26'0 0.0
2018-Apr-16 06:54N 35°58' E 120°26'0 0.1
2018-Apr-16 04:51N 35°58' E 120°26'0 0.0
2018-Apr-16 04:15N 35°58' E 120°26'0 0.0
2018-Apr-16 03:57N 35°58' E 120°26'2 3.9
2018-Apr-16 03:23N 35°56' E 120°27'  
Track history (hours):
 
Tides and Currents Weather Stations Pressure Air Temp Water Temp Dewpoint Dewpoint Depression Visibility Wind Speed Wind Dir Waves Ship Positions

Torm Kansas

Last reported at 2018-Apr-21 16:11 UTC. Time now 2018-Apr-21 17:21 UTC.
Position N 25°35' E 120°42'.

Length 183 m; draft 11.4 m.

Type: Tanker. MMSI: 220565000.

Date/timePositionNaut miles runAvg speedWind from/ knotsBaromVisibWave heightAir tempDewpointWater temp
2018-Apr-21 16:11N 25°35' E 120°42'413.6
2018-Apr-21 15:54N 25°37' E 120°45'613.7
2018-Apr-21 15:27N 25°42' E 120°49'713.4
2018-Apr-21 14:55N 25°47' E 120°55'35411.6
2018-Apr-20 08:24N 31°11' E 123°39'613.9
2018-Apr-20 08:00N 31°16' E 123°37'714.0
2018-Apr-20 07:30N 31°21' E 123°32'913.5
2018-Apr-20 06:50N 31°28' E 123°24'30712.6
2018-Apr-19 06:30N 35°59' E 120°31'713.6
2018-Apr-19 06:00N 36°01' E 120°23'611.0
2018-Apr-19 05:28N 36°02' E 120°16'3 0.5
2018-Apr-18 23:53N 36°04' E 120°13'0 0.0
2018-Apr-17 04:42N 36°04' E 120°13'0 1.0
2018-Apr-17 04:27N 36°04' E 120°13'4 7.8
2018-Apr-17 03:56N 36°02' E 120°17'810.0
2018-Apr-17 03:11N 35°60' E 120°26'1 5.7
2018-Apr-17 02:56N 35°58' E 120°26'0 0.1
2018-Apr-17 02:24N 35°58' E 120°26'0 0.0
2018-Apr-17 01:18N 35°58' E 120°26'0 0.0
2018-Apr-17 01:00N 35°58' E 120°26'0 0.2
2018-Apr-17 00:24N 35°58' E 120°26'0 0.2
2018-Apr-16 23:51N 35°58' E 120°26'0 0.0
2018-Apr-16 23:18N 35°58' E 120°26'0 0.0
2018-Apr-16 22:57N 35°58' E 120°26'0 0.0
2018-Apr-16 22:24N 35°58' E 120°26'0 0.0
2018-Apr-16 21:48N 35°58' E 120°26'0 0.0
2018-Apr-16 21:30N 35°58' E 120°26'0 0.0
2018-Apr-16 19:48N 35°58' E 120°26'0 0.0
2018-Apr-16 19:30N 35°58' E 120°26'0 0.0
2018-Apr-16 19:00N 35°58' E 120°26'0 0.1
2018-Apr-16 18:27N 35°58' E 120°26'0 0.0
2018-Apr-16 17:54N 35°58' E 120°26'0 0.1
2018-Apr-16 17:18N 35°58' E 120°26'0 0.1
2018-Apr-16 16:46N 35°58' E 120°26'0 0.2
2018-Apr-16 16:29N 35°58' E 120°26'0 0.0
2018-Apr-16 14:52N 35°58' E 120°26'0 0.1
2018-Apr-16 14:28N 35°58' E 120°26'0 0.1
2018-Apr-16 14:00N 35°58' E 120°26'0 0.1
2018-Apr-16 11:45N 35°58' E 120°26'0 0.0
2018-Apr-16 11:27N 35°58' E 120°26'0 0.0
2018-Apr-16 10:22N 35°58' E 120°26'0 0.0
2018-Apr-16 08:36N 35°58' E 120°26'0 0.0
2018-Apr-16 08:21N 35°58' E 120°26'0 0.0
2018-Apr-16 07:48N 35°58' E 120°26'0 0.0
2018-Apr-16 06:54N 35°58' E 120°26'0 0.1
2018-Apr-16 04:51N 35°58' E 120°26'0 0.0
2018-Apr-16 04:15N 35°58' E 120°26'0 0.0
2018-Apr-16 03:57N 35°58' E 120°26'2 3.9
2018-Apr-16 03:23N 35°56' E 120°27'  

Dump ship's entire track history